sensor_id;sensor_type;location;lat;lon;timestamp;temperature;humidity
68251;DHT22;55066;51.560;4.642;2023-03-01T00:01:13;-0.06;94.88
68251;DHT22;55066;51.560;4.642;2023-03-01T00:03:40;-0.05;95.17
68251;DHT22;55066;51.560;4.642;2023-03-01T00:06:07;-0.19;95.11
68251;DHT22;55066;51.560;4.642;2023-03-01T00:08:35;-0.22;95.21
68251;DHT22;55066;51.560;4.642;2023-03-01T00:13:39;-0.10;95.34
68251;DHT22;55066;51.560;4.642;2023-03-01T00:16:07;-0.14;95.48
68251;DHT22;55066;51.560;4.642;2023-03-01T00:18:34;-0.29;95.93
68251;DHT22;55066;51.560;4.642;2023-03-01T00:20:59;-0.37;96.31
68251;DHT22;55066;51.560;4.642;2023-03-01T00:23:25;-0.29;96.36
68251;DHT22;55066;51.560;4.642;2023-03-01T00:25:51;-0.38;96.31
68251;DHT22;55066;51.560;4.642;2023-03-01T00:28:17;-0.61;96.41
68251;DHT22;55066;51.560;4.642;2023-03-01T00:30:43;-0.61;97.52
68251;DHT22;55066;51.560;4.642;2023-03-01T00:33:09;-0.53;97.50
68251;DHT22;55066;51.560;4.642;2023-03-01T00:35:35;-0.34;96.81
68251;DHT22;55066;51.560;4.642;2023-03-01T00:38:01;-0.47;96.82
68251;DHT22;55066;51.560;4.642;2023-03-01T00:40:31;-0.57;97.15
68251;DHT22;55066;51.560;4.642;2023-03-01T00:42:57;-0.56;97.30
68251;DHT22;55066;51.560;4.642;2023-03-01T00:45:23;-0.49;96.93
68251;DHT22;55066;51.560;4.642;2023-03-01T00:47:49;-0.44;97.05
68251;DHT22;55066;51.560;4.642;2023-03-01T00:50:15;-0.53;96.70
68251;DHT22;55066;51.560;4.642;2023-03-01T00:52:41;-0.78;96.92
68251;DHT22;55066;51.560;4.642;2023-03-01T00:55:09;-0.74;97.68
68251;DHT22;55066;51.560;4.642;2023-03-01T00:57:35;-0.77;97.77
68251;DHT22;55066;51.560;4.642;2023-03-01T01:00:01;-0.61;97.18
68251;DHT22;55066;51.560;4.642;2023-03-01T01:02:29;-0.51;96.75
68251;DHT22;55066;51.560;4.642;2023-03-01T01:04:55;-0.51;96.68
68251;DHT22;55066;51.560;4.642;2023-03-01T01:07:20;-0.51;96.60
68251;DHT22;55066;51.560;4.642;2023-03-01T01:09:49;-0.58;96.57
68251;DHT22;55066;51.560;4.642;2023-03-01T01:12:16;-0.57;96.56
68251;DHT22;55066;51.560;4.642;2023-03-01T01:14:41;-0.58;96.58
68251;DHT22;55066;51.560;4.642;2023-03-01T01:17:08;-0.69;96.58
68251;DHT22;55066;51.560;4.642;2023-03-01T01:19:34;-0.74;96.78
68251;DHT22;55066;51.560;4.642;2023-03-01T01:21:59;-0.67;96.76
68251;DHT22;55066;51.560;4.642;2023-03-01T01:24:25;-0.64;96.57
68251;DHT22;55066;51.560;4.642;2023-03-01T01:26:51;-0.65;96.98
68251;DHT22;55066;51.560;4.642;2023-03-01T01:29:16;-0.77;96.82
68251;DHT22;55066;51.560;4.642;2023-03-01T01:31:42;-0.84;97.20
68251;DHT22;55066;51.560;4.642;2023-03-01T01:34:13;-0.85;97.36
68251;DHT22;55066;51.560;4.642;2023-03-01T01:36:39;-0.85;97.85
68251;DHT22;55066;51.560;4.642;2023-03-01T01:39:05;-0.95;97.71
68251;DHT22;55066;51.560;4.642;2023-03-01T01:41:31;-0.96;98.13
68251;DHT22;55066;51.560;4.642;2023-03-01T01:44:21;-1.02;98.31
68251;DHT22;55066;51.560;4.642;2023-03-01T01:47:04;-1.07;98.60
68251;DHT22;55066;51.560;4.642;2023-03-01T01:49:41;-0.93;98.85
68251;DHT22;55066;51.560;4.642;2023-03-01T01:52:11;-0.99;98.67
68251;DHT22;55066;51.560;4.642;2023-03-01T01:55:06;-0.93;98.45
68251;DHT22;55066;51.560;4.642;2023-03-01T01:57:39;-0.91;98.33
68251;DHT22;55066;51.560;4.642;2023-03-01T02:00:12;-0.93;98.45
68251;DHT22;55066;51.560;4.642;2023-03-01T02:02:39;-0.88;98.31
68251;DHT22;55066;51.560;4.642;2023-03-01T02:05:12;-0.91;98.02
68251;DHT22;55066;51.560;4.642;2023-03-01T02:07:41;-1.00;98.25
68251;DHT22;55066;51.560;4.642;2023-03-01T02:10:08;-1.07;98.35
68251;DHT22;55066;51.560;4.642;2023-03-01T02:12:34;-1.02;98.64
68251;DHT22;55066;51.560;4.642;2023-03-01T02:15:00;-1.03;98.37
68251;DHT22;55066;51.560;4.642;2023-03-01T02:17:26;-0.99;98.73
68251;DHT22;55066;51.560;4.642;2023-03-01T02:22:22;-1.17;98.62
68251;DHT22;55066;51.560;4.642;2023-03-01T02:27:49;-1.10;98.64
68251;DHT22;55066;51.560;4.642;2023-03-01T02:30:18;-1.00;98.75
68251;DHT22;55066;51.560;4.642;2023-03-01T02:32:44;-1.05;98.53
68251;DHT22;55066;51.560;4.642;2023-03-01T02:35:12;-1.12;98.82
68251;DHT22;55066;51.560;4.642;2023-03-01T02:37:41;-1.13;98.77
68251;DHT22;55066;51.560;4.642;2023-03-01T02:40:11;-1.10;98.89
68251;DHT22;55066;51.560;4.642;2023-03-01T02:42:47;-1.07;98.62
68251;DHT22;55066;51.560;4.642;2023-03-01T02:45:15;-1.15;98.42
68251;DHT22;55066;51.560;4.642;2023-03-01T02:47:41;-0.92;98.48
68251;DHT22;55066;51.560;4.642;2023-03-01T02:55:20;-1.12;98.61
68251;DHT22;55066;51.560;4.642;2023-03-01T02:57:47;-1.23;98.50
68251;DHT22;55066;51.560;4.642;2023-03-01T03:00:21;-1.15;98.87
68251;DHT22;55066;51.560;4.642;2023-03-01T03:02:50;-1.16;99.35
68251;DHT22;55066;51.560;4.642;2023-03-01T03:05:24;-1.17;99.36
68251;DHT22;55066;51.560;4.642;2023-03-01T03:07:53;-1.17;99.57
68251;DHT22;55066;51.560;4.642;2023-03-01T03:10:28;-1.19;99.72
68251;DHT22;55066;51.560;4.642;2023-03-01T03:13:02;-1.07;99.63
68251;DHT22;55066;51.560;4.642;2023-03-01T03:15:30;-1.09;99.33
68251;DHT22;55066;51.560;4.642;2023-03-01T03:17:58;-1.05;99.00
68251;DHT22;55066;51.560;4.642;2023-03-01T03:20:26;-1.06;98.85
68251;DHT22;55066;51.560;4.642;2023-03-01T03:22:54;-1.00;98.94
68251;DHT22;55066;51.560;4.642;2023-03-01T03:25:21;-1.06;98.87
68251;DHT22;55066;51.560;4.642;2023-03-01T03:27:50;-1.05;98.62
68251;DHT22;55066;51.560;4.642;2023-03-01T03:30:24;-1.03;98.18
68251;DHT22;55066;51.560;4.642;2023-03-01T03:32:50;-1.07;98.06
68251;DHT22;55066;51.560;4.642;2023-03-01T03:35:26;-0.98;97.87
68251;DHT22;55066;51.560;4.642;2023-03-01T03:37:53;-1.03;97.96
68251;DHT22;55066;51.560;4.642;2023-03-01T03:40:35;-1.00;97.80
68251;DHT22;55066;51.560;4.642;2023-03-01T03:43:08;-1.06;97.67
68251;DHT22;55066;51.560;4.642;2023-03-01T03:45:35;-1.05;97.69
68251;DHT22;55066;51.560;4.642;2023-03-01T03:48:01;-1.07;97.59
68251;DHT22;55066;51.560;4.642;2023-03-01T03:50:33;-1.15;97.81
68251;DHT22;55066;51.560;4.642;2023-03-01T03:53:03;-1.19;98.06
68251;DHT22;55066;51.560;4.642;2023-03-01T03:55:29;-1.30;97.84
68251;DHT22;55066;51.560;4.642;2023-03-01T03:58:00;-1.27;97.97
68251;DHT22;55066;51.560;4.642;2023-03-01T04:00:33;-1.40;98.28
68251;DHT22;55066;51.560;4.642;2023-03-01T04:02:59;-1.42;98.19
68251;DHT22;55066;51.560;4.642;2023-03-01T04:05:28;-1.68;98.68
68251;DHT22;55066;51.560;4.642;2023-03-01T04:07:55;-1.71;99.31
68251;DHT22;55066;51.560;4.642;2023-03-01T04:10:31;-1.75;99.14
68251;DHT22;55066;51.560;4.642;2023-03-01T04:12:57;-1.83;99.27
68251;DHT22;55066;51.560;4.642;2023-03-01T04:15:26;-1.85;99.75
68251;DHT22;55066;51.560;4.642;2023-03-01T04:17:53;-1.85;99.96
68251;DHT22;55066;51.560;4.642;2023-03-01T04:20:24;-1.79;99.71
68251;DHT22;55066;51.560;4.642;2023-03-01T04:22:52;-1.64;99.22
68251;DHT22;55066;51.560;4.642;2023-03-01T04:25:21;-1.61;98.91
68251;DHT22;55066;51.560;4.642;2023-03-01T04:27:51;-1.70;98.84
68251;DHT22;55066;51.560;4.642;2023-03-01T04:30:17;-1.78;98.78
68251;DHT22;55066;51.560;4.642;2023-03-01T04:32:42;-1.83;98.89
68251;DHT22;55066;51.560;4.642;2023-03-01T04:35:09;-1.86;98.87
68251;DHT22;55066;51.560;4.642;2023-03-01T04:37:36;-1.86;99.27
68251;DHT22;55066;51.560;4.642;2023-03-01T04:40:05;-1.81;98.72
68251;DHT22;55066;51.560;4.642;2023-03-01T04:42:41;-1.78;98.66
68251;DHT22;55066;51.560;4.642;2023-03-01T04:45:08;-1.92;98.81
68251;DHT22;55066;51.560;4.642;2023-03-01T04:47:47;-1.92;98.82
68251;DHT22;55066;51.560;4.642;2023-03-01T04:50:16;-1.86;98.77
68251;DHT22;55066;51.560;4.642;2023-03-01T04:52:46;-1.93;98.69
68251;DHT22;55066;51.560;4.642;2023-03-01T04:55:14;-1.89;98.68
68251;DHT22;55066;51.560;4.642;2023-03-01T04:57:42;-1.82;98.49
68251;DHT22;55066;51.560;4.642;2023-03-01T05:00:10;-1.88;98.59
68251;DHT22;55066;51.560;4.642;2023-03-01T05:05:35;-1.99;98.22
68251;DHT22;55066;51.560;4.642;2023-03-01T05:08:07;-1.82;97.83
68251;DHT22;55066;51.560;4.642;2023-03-01T05:10:50;-1.88;97.86
68251;DHT22;55066;51.560;4.642;2023-03-01T05:13:28;-1.85;97.64
68251;DHT22;55066;51.560;4.642;2023-03-01T05:16:52;-2.05;97.77
68251;DHT22;55066;51.560;4.642;2023-03-01T05:19:26;-1.93;98.14
68251;DHT22;55066;51.560;4.642;2023-03-01T05:22:07;-2.07;97.71
68251;DHT22;55066;51.560;4.642;2023-03-01T05:24:37;-2.19;98.29
68251;DHT22;55066;51.560;4.642;2023-03-01T05:27:30;-2.18;98.38
68251;DHT22;55066;51.560;4.642;2023-03-01T05:30:33;-2.01;97.59
68251;DHT22;55066;51.560;4.642;2023-03-01T05:33:03;-1.85;96.78
68251;DHT22;55066;51.560;4.642;2023-03-01T05:35:40;-1.93;96.77
68251;DHT22;55066;51.560;4.642;2023-03-01T05:38:12;-1.96;96.94
68251;DHT22;55066;51.560;4.642;2023-03-01T05:40:47;-1.78;96.45
68251;DHT22;55066;51.560;4.642;2023-03-01T05:43:19;-1.71;95.69
68251;DHT22;55066;51.560;4.642;2023-03-01T05:45:45;-1.89;96.15
68251;DHT22;55066;51.560;4.642;2023-03-01T05:48:12;-1.96;96.51
68251;DHT22;55066;51.560;4.642;2023-03-01T05:50:42;-1.95;96.67
68251;DHT22;55066;51.560;4.642;2023-03-01T05:53:17;-1.83;96.15
68251;DHT22;55066;51.560;4.642;2023-03-01T05:55:43;-1.88;96.13
68251;DHT22;55066;51.560;4.642;2023-03-01T05:58:14;-2.03;96.22
68251;DHT22;55066;51.560;4.642;2023-03-01T06:00:40;-1.99;96.33
68251;DHT22;55066;51.560;4.642;2023-03-01T06:03:06;-2.02;96.50
68251;DHT22;55066;51.560;4.642;2023-03-01T06:05:31;-2.26;96.49
68251;DHT22;55066;51.560;4.642;2023-03-01T06:08:00;-2.51;97.07
68251;DHT22;55066;51.560;4.642;2023-03-01T06:10:26;-2.58;98.33
68251;DHT22;55066;51.560;4.642;2023-03-01T06:12:53;-2.69;99.01
68251;DHT22;55066;51.560;4.642;2023-03-01T06:15:18;-2.69;99.71
68251;DHT22;55066;51.560;4.642;2023-03-01T06:17:45;-2.78;99.57
68251;DHT22;55066;51.560;4.642;2023-03-01T06:20:14;-2.74;99.99
68251;DHT22;55066;51.560;4.642;2023-03-01T06:22:40;-2.77;99.99
68251;DHT22;55066;51.560;4.642;2023-03-01T06:25:06;-2.75;99.99
68251;DHT22;55066;51.560;4.642;2023-03-01T06:27:32;-2.74;99.99
68251;DHT22;55066;51.560;4.642;2023-03-01T06:30:00;-2.68;99.60
68251;DHT22;55066;51.560;4.642;2023-03-01T06:32:26;-2.69;99.35
68251;DHT22;55066;51.560;4.642;2023-03-01T06:34:52;-2.65;99.48
68251;DHT22;55066;51.560;4.642;2023-03-01T06:37:17;-2.65;99.47
68251;DHT22;55066;51.560;4.642;2023-03-01T06:39:42;-2.67;99.09
68251;DHT22;55066;51.560;4.642;2023-03-01T06:42:09;-2.75;99.35
68251;DHT22;55066;51.560;4.642;2023-03-01T06:44:37;-2.77;99.66
68251;DHT22;55066;51.560;4.642;2023-03-01T06:47:04;-2.72;99.76
68251;DHT22;55066;51.560;4.642;2023-03-01T06:49:29;-2.71;99.31
68251;DHT22;55066;51.560;4.642;2023-03-01T06:51:55;-2.71;99.21
68251;DHT22;55066;51.560;4.642;2023-03-01T06:54:21;-2.68;99.16
68251;DHT22;55066;51.560;4.642;2023-03-01T06:56:50;-2.69;98.93
68251;DHT22;55066;51.560;4.642;2023-03-01T06:59:16;-2.72;98.97
68251;DHT22;55066;51.560;4.642;2023-03-01T07:01:42;-2.67;98.93
68251;DHT22;55066;51.560;4.642;2023-03-01T07:04:09;-2.58;98.81
68251;DHT22;55066;51.560;4.642;2023-03-01T07:06:37;-2.60;98.30
68251;DHT22;55066;51.560;4.642;2023-03-01T07:09:03;-2.65;98.26
68251;DHT22;55066;51.560;4.642;2023-03-01T07:11:28;-2.65;98.34
68251;DHT22;55066;51.560;4.642;2023-03-01T07:13:54;-2.53;98.67
68251;DHT22;55066;51.560;4.642;2023-03-01T07:16:20;-2.37;98.51
68251;DHT22;55066;51.560;4.642;2023-03-01T07:18:46;-2.32;98.01
68251;DHT22;55066;51.560;4.642;2023-03-01T07:21:14;-2.41;97.72
68251;DHT22;55066;51.560;4.642;2023-03-01T07:23:40;-2.36;97.95
68251;DHT22;55066;51.560;4.642;2023-03-01T07:26:08;-2.20;97.68
68251;DHT22;55066;51.560;4.642;2023-03-01T07:28:35;-1.93;97.22
68251;DHT22;55066;51.560;4.642;2023-03-01T07:31:05;-1.78;96.66
68251;DHT22;55066;51.560;4.642;2023-03-01T07:33:30;-1.50;95.80
68251;DHT22;55066;51.560;4.642;2023-03-01T07:35:57;-1.42;95.36
68251;DHT22;55066;51.560;4.642;2023-03-01T07:38:26;-1.33;94.71
68251;DHT22;55066;51.560;4.642;2023-03-01T07:40:53;-1.30;94.51
68251;DHT22;55066;51.560;4.642;2023-03-01T07:43:19;-1.29;94.37
68251;DHT22;55066;51.560;4.642;2023-03-01T07:45:46;-1.13;94.05
68251;DHT22;55066;51.560;4.642;2023-03-01T07:48:12;-0.95;93.32
68251;DHT22;55066;51.560;4.642;2023-03-01T07:50:37;-0.92;93.21
68251;DHT22;55066;51.560;4.642;2023-03-01T07:53:03;-0.82;92.74
68251;DHT22;55066;51.560;4.642;2023-03-01T07:55:31;-0.85;92.90
68251;DHT22;55066;51.560;4.642;2023-03-01T07:57:57;-0.72;92.52
68251;DHT22;55066;51.560;4.642;2023-03-01T08:00:24;-0.60;92.28
68251;DHT22;55066;51.560;4.642;2023-03-01T08:02:50;-0.60;92.10
68251;DHT22;55066;51.560;4.642;2023-03-01T08:05:16;-0.45;91.65
68251;DHT22;55066;51.560;4.642;2023-03-01T08:07:41;-0.31;91.24
68251;DHT22;55066;51.560;4.642;2023-03-01T08:10:08;-0.12;90.59
68251;DHT22;55066;51.560;4.642;2023-03-01T08:12:35;0.21;89.54
68251;DHT22;55066;51.560;4.642;2023-03-01T08:15:00;0.30;89.25
68251;DHT22;55066;51.560;4.642;2023-03-01T08:17:26;0.38;88.88
68251;DHT22;55066;51.560;4.642;2023-03-01T08:19:51;0.53;88.47
68251;DHT22;55066;51.560;4.642;2023-03-01T08:22:17;0.66;87.92
68251;DHT22;55066;51.560;4.642;2023-03-01T08:24:43;0.79;87.75
68251;DHT22;55066;51.560;4.642;2023-03-01T08:27:11;0.84;87.07
68251;DHT22;55066;51.560;4.642;2023-03-01T08:29:38;0.94;86.92
68251;DHT22;55066;51.560;4.642;2023-03-01T08:32:04;1.02;86.62
68251;DHT22;55066;51.560;4.642;2023-03-01T08:34:30;1.21;85.63
68251;DHT22;55066;51.560;4.642;2023-03-01T08:36:56;1.25;85.29
68251;DHT22;55066;51.560;4.642;2023-03-01T08:39:22;1.27;85.48
68251;DHT22;55066;51.560;4.642;2023-03-01T08:41:49;1.52;85.12
68251;DHT22;55066;51.560;4.642;2023-03-01T08:44:15;1.55;85.05
68251;DHT22;55066;51.560;4.642;2023-03-01T08:46:45;1.63;83.88
68251;DHT22;55066;51.560;4.642;2023-03-01T08:49:13;1.71;84.21
68251;DHT22;55066;51.560;4.642;2023-03-01T08:51:39;1.76;83.36
68251;DHT22;55066;51.560;4.642;2023-03-01T08:54:17;1.90;83.09
68251;DHT22;55066;51.560;4.642;2023-03-01T08:56:43;2.05;82.49
68251;DHT22;55066;51.560;4.642;2023-03-01T08:59:16;2.18;82.10
68251;DHT22;55066;51.560;4.642;2023-03-01T09:02:04;2.20;81.95
68251;DHT22;55066;51.560;4.642;2023-03-01T09:04:32;2.33;81.48
68251;DHT22;55066;51.560;4.642;2023-03-01T09:07:01;2.60;80.92
68251;DHT22;55066;51.560;4.642;2023-03-01T09:09:27;2.67;80.73
68251;DHT22;55066;51.560;4.642;2023-03-01T09:11:52;2.81;80.28
68251;DHT22;55066;51.560;4.642;2023-03-01T09:14:18;2.83;78.52
68251;DHT22;55066;51.560;4.642;2023-03-01T09:16:46;2.88;78.04
68251;DHT22;55066;51.560;4.642;2023-03-01T09:19:13;3.05;77.54
68251;DHT22;55066;51.560;4.642;2023-03-01T09:21:39;2.97;77.89
68251;DHT22;55066;51.560;4.642;2023-03-01T09:24:19;3.05;77.43
68251;DHT22;55066;51.560;4.642;2023-03-01T09:26:50;3.12;77.90
68251;DHT22;55066;51.560;4.642;2023-03-01T09:29:17;3.15;76.96
68251;DHT22;55066;51.560;4.642;2023-03-01T09:31:43;3.12;76.67
68251;DHT22;55066;51.560;4.642;2023-03-01T09:34:09;3.15;77.57
68251;DHT22;55066;51.560;4.642;2023-03-01T09:36:36;3.26;76.57
68251;DHT22;55066;51.560;4.642;2023-03-01T09:39:02;3.55;76.02
68251;DHT22;55066;51.560;4.642;2023-03-01T09:44:31;3.52;75.94
68251;DHT22;55066;51.560;4.642;2023-03-01T09:46:59;3.46;75.49
68251;DHT22;55066;51.560;4.642;2023-03-01T09:49:29;3.81;74.94
68251;DHT22;55066;51.560;4.642;2023-03-01T09:51:59;3.70;74.55
68251;DHT22;55066;51.560;4.642;2023-03-01T09:54:26;3.63;75.25
68251;DHT22;55066;51.560;4.642;2023-03-01T10:00:01;3.79;75.50
68251;DHT22;55066;51.560;4.642;2023-03-01T10:02:43;3.97;75.11
68251;DHT22;55066;51.560;4.642;2023-03-01T10:10:34;4.25;74.24
68251;DHT22;55066;51.560;4.642;2023-03-01T10:13:27;4.27;73.52
68251;DHT22;55066;51.560;4.642;2023-03-01T10:15:56;4.21;74.25
68251;DHT22;55066;51.560;4.642;2023-03-01T10:18:26;4.38;73.56
68251;DHT22;55066;51.560;4.642;2023-03-01T10:21:00;4.34;73.49
68251;DHT22;55066;51.560;4.642;2023-03-01T10:23:28;4.29;73.24
68251;DHT22;55066;51.560;4.642;2023-03-01T10:26:08;4.21;73.67
68251;DHT22;55066;51.560;4.642;2023-03-01T10:31:20;4.39;73.95
68251;DHT22;55066;51.560;4.642;2023-03-01T10:33:48;4.42;73.23
68251;DHT22;55066;51.560;4.642;2023-03-01T10:36:18;4.44;72.43
68251;DHT22;55066;51.560;4.642;2023-03-01T10:38:53;4.55;73.13
68251;DHT22;55066;51.560;4.642;2023-03-01T10:41:20;4.66;73.31
68251;DHT22;55066;51.560;4.642;2023-03-01T10:43:56;4.73;72.03
68251;DHT22;55066;51.560;4.642;2023-03-01T10:49:18;4.76;70.60
68251;DHT22;55066;51.560;4.642;2023-03-01T10:51:46;4.49;71.10
68251;DHT22;55066;51.560;4.642;2023-03-01T10:54:21;4.72;71.71
68251;DHT22;55066;51.560;4.642;2023-03-01T10:56:53;4.76;71.20
68251;DHT22;55066;51.560;4.642;2023-03-01T10:59:26;4.86;71.37
68251;DHT22;55066;51.560;4.642;2023-03-01T11:02:13;4.79;70.80
68251;DHT22;55066;51.560;4.642;2023-03-01T11:04:39;5.04;69.45
68251;DHT22;55066;51.560;4.642;2023-03-01T11:07:20;5.10;69.53
68251;DHT22;55066;51.560;4.642;2023-03-01T11:09:45;5.11;70.50
68251;DHT22;55066;51.560;4.642;2023-03-01T11:12:14;5.36;68.62
68251;DHT22;55066;51.560;4.642;2023-03-01T11:14:53;5.31;69.72
68251;DHT22;55066;51.560;4.642;2023-03-01T11:17:31;5.30;70.18
68251;DHT22;55066;51.560;4.642;2023-03-01T11:22:54;5.13;71.25
68251;DHT22;55066;51.560;4.642;2023-03-01T11:25:24;5.49;72.22
68251;DHT22;55066;51.560;4.642;2023-03-01T11:27:53;5.62;69.70
68251;DHT22;55066;51.560;4.642;2023-03-01T11:33:52;5.49;71.61
68251;DHT22;55066;51.560;4.642;2023-03-01T11:36:32;5.48;69.68
68251;DHT22;55066;51.560;4.642;2023-03-01T11:39:27;5.65;68.54
68251;DHT22;55066;51.560;4.642;2023-03-01T11:44:54;5.48;70.07
68251;DHT22;55066;51.560;4.642;2023-03-01T11:50:46;5.70;76.15
68251;DHT22;55066;51.560;4.642;2023-03-01T11:53:25;5.66;68.55
68251;DHT22;55066;51.560;4.642;2023-03-01T11:56:16;6.13;75.15
68251;DHT22;55066;51.560;4.642;2023-03-01T11:59:06;6.08;69.35
68251;DHT22;55066;51.560;4.642;2023-03-01T12:07:01;6.22;70.48
68251;DHT22;55066;51.560;4.642;2023-03-01T12:15:07;6.13;69.85
68251;DHT22;55066;51.560;4.642;2023-03-01T12:18:06;5.91;67.61
68251;DHT22;55066;51.560;4.642;2023-03-01T12:26:27;6.20;68.21
68251;DHT22;55066;51.560;4.642;2023-03-01T12:39:51;6.53;68.04
68251;DHT22;55066;51.560;4.642;2023-03-01T12:42:38;6.52;69.80
68251;DHT22;55066;51.560;4.642;2023-03-01T12:45:32;6.61;67.87
68251;DHT22;55066;51.560;4.642;2023-03-01T12:50:57;7.03;75.46
68251;DHT22;55066;51.560;4.642;2023-03-01T12:53:35;6.82;69.56
68251;DHT22;55066;51.560;4.642;2023-03-01T12:56:14;6.73;70.67
68251;DHT22;55066;51.560;4.642;2023-03-01T12:58:49;6.90;68.76
68251;DHT22;55066;51.560;4.642;2023-03-01T13:01:23;6.90;69.52
68251;DHT22;55066;51.560;4.642;2023-03-01T13:04:12;7.11;72.53
68251;DHT22;55066;51.560;4.642;2023-03-01T13:07:43;6.96;65.85
68251;DHT22;55066;51.560;4.642;2023-03-01T13:10:16;6.87;67.00
68251;DHT22;55066;51.560;4.642;2023-03-01T13:17:51;6.94;69.47
68251;DHT22;55066;51.560;4.642;2023-03-01T13:20:21;6.92;67.72
68251;DHT22;55066;51.560;4.642;2023-03-01T13:22:47;6.93;65.91
68251;DHT22;55066;51.560;4.642;2023-03-01T13:25:24;7.15;68.32
68251;DHT22;55066;51.560;4.642;2023-03-01T13:28:32;7.21;71.59
68251;DHT22;55066;51.560;4.642;2023-03-01T13:31:03;7.17;67.42
68251;DHT22;55066;51.560;4.642;2023-03-01T13:35:56;7.05;68.39
68251;DHT22;55066;51.560;4.642;2023-03-01T13:38:48;7.18;69.88
68251;DHT22;55066;51.560;4.642;2023-03-01T13:46:51;7.44;66.77
68251;DHT22;55066;51.560;4.642;2023-03-01T13:49:20;7.29;65.53
68251;DHT22;55066;51.560;4.642;2023-03-01T13:51:47;7.31;67.32
68251;DHT22;55066;51.560;4.642;2023-03-01T13:54:15;7.70;77.71
68251;DHT22;55066;51.560;4.642;2023-03-01T13:56:43;7.69;70.12
68251;DHT22;55066;51.560;4.642;2023-03-01T13:59:18;7.66;66.07
68251;DHT22;55066;51.560;4.642;2023-03-01T14:01:53;7.28;66.11
68251;DHT22;55066;51.560;4.642;2023-03-01T14:04:31;7.35;65.85
68251;DHT22;55066;51.560;4.642;2023-03-01T14:07:20;7.56;73.35
68251;DHT22;55066;51.560;4.642;2023-03-01T14:09:53;7.93;76.93
68251;DHT22;55066;51.560;4.642;2023-03-01T14:20:43;7.82;70.27
68251;DHT22;55066;51.560;4.642;2023-03-01T14:23:21;7.34;64.07
68251;DHT22;55066;51.560;4.642;2023-03-01T14:25:57;7.58;64.02
68251;DHT22;55066;51.560;4.642;2023-03-01T14:28:31;7.76;72.04
68251;DHT22;55066;51.560;4.642;2023-03-01T14:31:01;7.67;68.16
68251;DHT22;55066;51.560;4.642;2023-03-01T14:36:08;7.79;72.77
68251;DHT22;55066;51.560;4.642;2023-03-01T14:38:46;7.76;68.10
68251;DHT22;55066;51.560;4.642;2023-03-01T14:41:25;7.61;65.42
68251;DHT22;55066;51.560;4.642;2023-03-01T14:43:57;7.56;65.26
68251;DHT22;55066;51.560;4.642;2023-03-01T14:46:39;7.85;66.29
68251;DHT22;55066;51.560;4.642;2023-03-01T14:49:13;8.15;71.37
68251;DHT22;55066;51.560;4.642;2023-03-01T14:52:05;9.00;66.79
68251;DHT22;55066;51.560;4.642;2023-03-01T14:54:46;9.59;61.38
68251;DHT22;55066;51.560;4.642;2023-03-01T14:57:19;10.42;74.69
68251;DHT22;55066;51.560;4.642;2023-03-01T14:59:47;10.18;59.47
68251;DHT22;55066;51.560;4.642;2023-03-01T15:02:18;9.56;58.11
68251;DHT22;55066;51.560;4.642;2023-03-01T15:04:51;9.55;59.49
68251;DHT22;55066;51.560;4.642;2023-03-01T15:07:17;9.81;60.30
68251;DHT22;55066;51.560;4.642;2023-03-01T15:09:44;9.89;65.48
68251;DHT22;55066;51.560;4.642;2023-03-01T15:14:52;9.27;66.91
68251;DHT22;55066;51.560;4.642;2023-03-01T15:19:55;9.21;62.05
68251;DHT22;55066;51.560;4.642;2023-03-01T15:22:20;9.21;60.17
68251;DHT22;55066;51.560;4.642;2023-03-01T15:24:49;9.14;61.30
68251;DHT22;55066;51.560;4.642;2023-03-01T15:27:17;9.32;61.79
68251;DHT22;55066;51.560;4.642;2023-03-01T15:29:55;9.11;61.56
68251;DHT22;55066;51.560;4.642;2023-03-01T15:32:34;9.07;61.00
68251;DHT22;55066;51.560;4.642;2023-03-01T15:35:01;8.48;60.49
68251;DHT22;55066;51.560;4.642;2023-03-01T15:37:47;8.03;62.71
68251;DHT22;55066;51.560;4.642;2023-03-01T15:40:23;7.96;65.33
68251;DHT22;55066;51.560;4.642;2023-03-01T15:43:05;8.08;64.64
68251;DHT22;55066;51.560;4.642;2023-03-01T15:45:32;8.04;62.68
68251;DHT22;55066;51.560;4.642;2023-03-01T15:48:15;8.00;63.42
68251;DHT22;55066;51.560;4.642;2023-03-01T15:50:42;8.23;66.22
68251;DHT22;55066;51.560;4.642;2023-03-01T15:53:13;8.24;64.03
68251;DHT22;55066;51.560;4.642;2023-03-01T15:55:40;8.17;66.07
68251;DHT22;55066;51.560;4.642;2023-03-01T15:58:12;7.69;66.26
68251;DHT22;55066;51.560;4.642;2023-03-01T16:00:39;7.89;65.44
68251;DHT22;55066;51.560;4.642;2023-03-01T16:03:05;7.73;67.58
68251;DHT22;55066;51.560;4.642;2023-03-01T16:05:34;7.67;62.94
68251;DHT22;55066;51.560;4.642;2023-03-01T16:08:00;7.73;67.23
68251;DHT22;55066;51.560;4.642;2023-03-01T16:10:27;7.58;64.27
68251;DHT22;55066;51.560;4.642;2023-03-01T16:12:53;7.65;71.47
68251;DHT22;55066;51.560;4.642;2023-03-01T16:17:49;7.44;66.13
68251;DHT22;55066;51.560;4.642;2023-03-01T16:20:21;7.31;66.18
68251;DHT22;55066;51.560;4.642;2023-03-01T16:22:46;7.47;67.97
68251;DHT22;55066;51.560;4.642;2023-03-01T16:25:14;7.44;68.60
68251;DHT22;55066;51.560;4.642;2023-03-01T16:27:45;7.51;69.47
68251;DHT22;55066;51.560;4.642;2023-03-01T16:30:12;7.17;68.97
68251;DHT22;55066;51.560;4.642;2023-03-01T16:32:39;6.68;67.12
68251;DHT22;55066;51.560;4.642;2023-03-01T16:35:09;6.50;68.29
68251;DHT22;55066;51.560;4.642;2023-03-01T16:37:36;6.38;68.59
68251;DHT22;55066;51.560;4.642;2023-03-01T16:40:03;6.20;68.39
68251;DHT22;55066;51.560;4.642;2023-03-01T16:42:38;6.21;69.38
68251;DHT22;55066;51.560;4.642;2023-03-01T16:45:06;6.11;67.96
68251;DHT22;55066;51.560;4.642;2023-03-01T16:47:33;6.16;75.52
68251;DHT22;55066;51.560;4.642;2023-03-01T16:50:00;5.93;68.73
68251;DHT22;55066;51.560;4.642;2023-03-01T16:52:26;5.90;71.74
68251;DHT22;55066;51.560;4.642;2023-03-01T16:54:51;5.90;74.56
68251;DHT22;55066;51.560;4.642;2023-03-01T16:57:17;5.71;67.47
68251;DHT22;55066;51.560;4.642;2023-03-01T16:59:43;5.66;72.83
68251;DHT22;55066;51.560;4.642;2023-03-01T17:02:11;5.63;70.69
68251;DHT22;55066;51.560;4.642;2023-03-01T17:04:38;5.71;73.83
68251;DHT22;55066;51.560;4.642;2023-03-01T17:07:04;5.56;70.02
68251;DHT22;55066;51.560;4.642;2023-03-01T17:09:29;5.42;70.18
68251;DHT22;55066;51.560;4.642;2023-03-01T17:11:54;5.34;74.07
68251;DHT22;55066;51.560;4.642;2023-03-01T17:14:20;5.32;72.14
68251;DHT22;55066;51.560;4.642;2023-03-01T17:16:46;5.11;71.07
68251;DHT22;55066;51.560;4.642;2023-03-01T17:19:12;5.10;76.37
68251;DHT22;55066;51.560;4.642;2023-03-01T17:21:43;5.00;70.69
68251;DHT22;55066;51.560;4.642;2023-03-01T17:24:09;4.98;70.36
68251;DHT22;55066;51.560;4.642;2023-03-01T17:26:34;5.05;77.20
68251;DHT22;55066;51.560;4.642;2023-03-01T17:29:01;4.98;79.04
68251;DHT22;55066;51.560;4.642;2023-03-01T17:31:26;4.69;78.94
68251;DHT22;55066;51.560;4.642;2023-03-01T17:33:52;4.66;84.21
68251;DHT22;55066;51.560;4.642;2023-03-01T17:36:17;4.50;77.79
68251;DHT22;55066;51.560;4.642;2023-03-01T17:38:43;4.46;75.93
68251;DHT22;55066;51.560;4.642;2023-03-01T17:41:08;4.59;80.76
68251;DHT22;55066;51.560;4.642;2023-03-01T17:43:36;4.29;76.62
68251;DHT22;55066;51.560;4.642;2023-03-01T17:46:02;4.44;86.67